Time;durP1;ratioP1;P1;durP2;ratioP2;P2;SDS_P1;SDS_P2;PMS_P1;PMS_P2;Temp;Humidity;BMP_temperature;BMP_pressure;BME280_temperature;BME280_humidity;BME280_pressure;Samples;Min_cycle;Max_cycle;Signal;HPM_P1;HPM_P2
2024/03/18 00:02:23;;;;;;;0.93;0.85;;;8.00;99.90;;;;;;5057121;28;20558;-59
2024/03/18 00:04:50;;;;;;;0.60;0.60;;;8.10;99.90;;;;;;5057015;28;20229;-59
2024/03/18 00:07:15;;;;;;;1.27;0.98;;;8.00;99.90;;;;;;5057140;28;20174;-59
2024/03/18 00:09:41;;;;;;;0.60;0.60;;;8.00;99.90;;;;;;5057428;28;20269;-59
2024/03/18 00:12:08;;;;;;;0.97;0.97;;;7.90;99.90;;;;;;5057103;28;20431;-59
2024/03/18 00:14:33;;;;;;;0.80;0.80;;;7.90;99.90;;;;;;5056336;28;20700;-59
2024/03/18 00:16:59;;;;;;;3.60;1.20;;;7.90;99.90;;;;;;5057169;28;20193;-59
2024/03/18 00:19:25;;;;;;;2.20;1.00;;;8.00;99.90;;;;;;5056763;28;20587;-59
2024/03/18 00:21:51;;;;;;;0.73;0.73;;;8.00;99.90;;;;;;5056646;28;20198;-59
2024/03/18 00:24:20;;;;;;;1.47;1.37;;;8.00;99.90;;;;;;5056382;28;20205;-59
2024/03/18 00:26:46;;;;;;;1.63;1.00;;;8.00;99.90;;;;;;5057086;28;20512;-59
2024/03/18 00:29:12;;;;;;;0.80;0.80;;;8.00;99.90;;;;;;5057101;28;20241;-59
2024/03/18 00:31:38;;;;;;;1.90;1.13;;;7.90;99.90;;;;;;5056486;28;20189;-59
2024/03/18 00:34:04;;;;;;;4.53;1.90;;;7.90;99.90;;;;;;5056397;28;20197;-59
2024/03/18 00:36:30;;;;;;;0.80;0.80;;;8.00;99.90;;;;;;5056582;28;20193;-59
2024/03/18 00:38:55;;;;;;;0.82;0.68;;;8.10;99.90;;;;;;5055981;28;20585;-59
2024/03/18 00:44:05;;;;;;;1.70;1.17;;;8.00;99.90;;;;;;5056499;28;20233;-59
2024/03/18 00:46:31;;;;;;;1.23;0.80;;;8.00;99.90;;;;;;5056404;28;20206;-59
2024/03/18 00:48:57;;;;;;;2.10;0.80;;;8.10;99.90;;;;;;5052903;28;20182;-59
2024/03/18 00:51:22;;;;;;;3.03;0.80;;;8.10;99.90;;;;;;5056702;28;20243;-59
2024/03/18 00:53:48;;;;;;;1.43;1.10;;;8.30;99.90;;;;;;5056119;28;20178;-59
2024/03/18 00:56:14;;;;;;;1.87;0.90;;;8.10;99.90;;;;;;5064697;28;20208;-59
2024/03/18 00:58:39;;;;;;;1.80;1.17;;;8.10;99.90;;;;;;5047364;28;20693;-59
2024/03/18 01:01:06;;;;;;;2.80;1.70;;;8.20;99.90;;;;;;5056383;28;20268;-59
2024/03/18 01:03:33;;;;;;;1.50;1.05;;;8.10;99.90;;;;;;5056143;28;20185;-60
2024/03/18 01:05:59;;;;;;;1.65;1.05;;;8.10;99.90;;;;;;5056086;28;20675;-59
2024/03/18 01:08:25;;;;;;;1.20;1.17;;;8.00;99.90;;;;;;5055905;28;20181;-59
2024/03/18 01:10:50;;;;;;;1.30;1.20;;;8.00;99.90;;;;;;5056239;28;20409;-59
2024/03/18 01:13:16;;;;;;;1.30;1.20;;;8.10;99.90;;;;;;5055371;28;20178;-59
2024/03/18 01:15:42;;;;;;;2.87;0.90;;;8.10;99.90;;;;;;5055750;28;20221;-59
2024/03/18 01:18:08;;;;;;;0.68;0.68;;;8.20;99.90;;;;;;5055250;28;20788;-60
2024/03/18 01:20:35;;;;;;;0.60;0.60;;;8.30;99.90;;;;;;5055433;28;20186;-59
2024/03/18 01:23:04;;;;;;;2.38;1.13;;;8.40;99.90;;;;;;5055782;28;20220;-59
2024/03/18 01:25:33;;;;;;;1.40;1.00;;;8.40;99.90;;;;;;5055365;28;20272;-59
2024/03/18 01:27:58;;;;;;;1.20;0.95;;;8.50;99.90;;;;;;5055366;28;20166;-60
2024/03/18 01:30:24;;;;;;;1.67;1.57;;;8.50;99.90;;;;;;5055472;28;20679;-59
2024/03/18 01:32:50;;;;;;;1.63;1.10;;;8.50;99.90;;;;;;5055273;28;20181;-59
2024/03/18 01:35:16;;;;;;;1.00;0.90;;;8.50;99.90;;;;;;5055156;28;20736;-59
2024/03/18 01:37:45;;;;;;;1.75;0.95;;;8.50;99.90;;;;;;5055533;28;20575;-60
2024/03/18 01:40:11;;;;;;;2.97;1.00;;;8.50;99.90;;;;;;5055263;28;20206;-59
2024/03/18 01:42:38;;;;;;;1.33;1.00;;;8.50;99.90;;;;;;5055922;28;20269;-59
2024/03/18 01:45:03;;;;;;;1.52;1.42;;;8.50;99.90;;;;;;5055366;28;20284;-59
2024/03/18 01:47:29;;;;;;;1.47;0.93;;;8.50;99.90;;;;;;5055218;28;20202;-59
2024/03/18 01:49:55;;;;;;;2.10;0.93;;;8.50;99.90;;;;;;5051168;28;20417;-59
2024/03/18 01:52:21;;;;;;;3.23;0.93;;;8.50;99.90;;;;;;5055336;28;20416;-59
2024/03/18 01:54:48;;;;;;;2.67;1.13;;;8.50;99.90;;;;;;5055036;28;20675;-60
2024/03/18 01:57:14;;;;;;;2.80;1.45;;;8.40;99.90;;;;;;5054871;28;20182;-59
2024/03/18 01:59:40;;;;;;;1.27;1.23;;;8.50;99.90;;;;;;5054807;28;20198;-60
2024/03/18 02:02:07;;;;;;;0.73;0.73;;;8.60;99.90;;;;;;5055160;28;20185;-59
2024/03/18 02:04:32;;;;;;;0.80;0.65;;;8.60;99.90;;;;;;5055327;28;20574;-59
2024/03/18 02:06:58;;;;;;;2.40;0.90;;;8.50;99.90;;;;;;5054760;28;20178;-59
2024/03/18 02:09:27;;;;;;;4.30;1.07;;;8.40;99.90;;;;;;5054948;28;20272;-59
2024/03/18 02:11:56;;;;;;;0.60;0.60;;;8.50;99.90;;;;;;5054652;28;20178;-59
2024/03/18 02:14:23;;;;;;;1.13;0.80;;;8.40;99.90;;;;;;5055334;28;20202;-60
2024/03/18 02:16:49;;;;;;;1.52;1.05;;;8.50;99.90;;;;;;5055251;28;20212;-60
2024/03/18 02:19:14;;;;;;;2.13;1.38;;;8.60;99.90;;;;;;5055162;28;20217;-59
2024/03/18 02:21:40;;;;;;;0.70;0.70;;;8.50;99.90;;;;;;5054790;28;20166;-60
2024/03/18 02:24:09;;;;;;;5.07;0.83;;;8.50;99.90;;;;;;5054479;28;20620;-59
2024/03/18 02:26:34;;;;;;;2.03;1.05;;;8.60;99.90;;;;;;5054456;28;20210;-59
2024/03/18 02:29:00;;;;;;;0.90;0.90;;;8.60;99.90;;;;;;5054373;28;20560;-59
2024/03/18 02:31:26;;;;;;;3.90;1.20;;;8.60;99.90;;;;;;5054463;28;20188;-59
2024/03/18 02:33:52;;;;;;;1.23;1.00;;;8.80;99.90;;;;;;5054289;28;20639;-60
2024/03/18 02:36:18;;;;;;;1.60;1.23;;;8.50;99.90;;;;;;5054651;28;20238;-60
2024/03/18 02:38:44;;;;;;;2.42;1.30;;;8.60;99.90;;;;;;5054415;28;20399;-59
2024/03/18 02:41:10;;;;;;;2.35;1.17;;;8.70;99.90;;;;;;5054967;28;20202;-59
2024/03/18 02:43:36;;;;;;;2.87;1.63;;;8.70;99.90;;;;;;5054575;28;20216;-59
2024/03/18 02:46:04;;;;;;;3.13;1.30;;;8.70;99.90;;;;;;5054474;28;20486;-59
2024/03/18 02:48:30;;;;;;;1.20;1.10;;;8.80;99.90;;;;;;5050933;28;20265;-59
2024/03/18 02:50:56;;;;;;;0.90;0.90;;;8.80;99.90;;;;;;5054839;28;20225;-59
2024/03/18 02:53:22;;;;;;;1.70;1.05;;;8.80;99.90;;;;;;5055280;28;20185;-59
2024/03/18 02:55:48;;;;;;;1.20;1.07;;;8.90;99.90;;;;;;5061509;28;20197;-59
2024/03/18 02:58:13;;;;;;;2.93;1.80;;;8.80;99.90;;;;;;5054009;28;20174;-59
2024/03/18 03:00:39;;;;;;;1.17;1.10;;;8.80;99.90;;;;;;5054361;28;20178;-59
2024/03/18 03:03:05;;;;;;;10.10;2.00;;;8.90;99.90;;;;;;5057561;28;20269;-59
2024/03/18 03:05:30;;;;;;;2.40;2.00;;;8.80;99.90;;;;;;5057970;28;20431;-59
2024/03/18 03:07:56;;;;;;;3.17;1.93;;;8.80;99.90;;;;;;5058115;28;20174;-59
2024/03/18 03:10:22;;;;;;;2.57;1.63;;;8.80;99.90;;;;;;5058199;28;20658;-60
2024/03/18 03:12:48;;;;;;;2.92;1.08;;;8.80;99.90;;;;;;5058506;28;20178;-59
2024/03/18 03:15:14;;;;;;;2.88;2.17;;;8.80;99.90;;;;;;5058004;28;20217;-59
2024/03/18 03:17:40;;;;;;;2.70;1.10;;;8.90;99.90;;;;;;5058137;28;20595;-59
2024/03/18 03:20:08;;;;;;;2.83;1.47;;;8.80;99.90;;;;;;5057890;28;20205;-59
2024/03/18 03:22:35;;;;;;;1.30;1.13;;;8.80;99.90;;;;;;5058294;28;20182;-59
2024/03/18 03:25:01;;;;;;;0.85;0.77;;;8.90;99.90;;;;;;5057790;28;20631;-59
2024/03/18 03:27:27;;;;;;;1.60;1.50;;;8.90;99.90;;;;;;5057759;28;20189;-59
2024/03/18 03:29:53;;;;;;;1.85;1.42;;;9.00;99.90;;;;;;5057960;28;20186;-59
2024/03/18 03:32:19;;;;;;;2.90;1.20;;;8.90;99.90;;;;;;5058226;28;20175;-59
2024/03/18 03:34:45;;;;;;;0.90;0.63;;;8.90;99.90;;;;;;5066098;28;20229;-59
2024/03/18 03:37:10;;;;;;;1.60;1.20;;;8.90;99.90;;;;;;5058165;28;20178;-59
2024/03/18 03:39:36;;;;;;;5.70;1.33;;;8.90;99.90;;;;;;5056766;28;20454;-59
2024/03/18 03:42:06;;;;;;;1.10;1.00;;;9.00;99.90;;;;;;5057403;28;20174;-59
2024/03/18 03:44:32;;;;;;;1.38;1.27;;;9.10;99.90;;;;;;5055799;28;20259;-59
2024/03/18 03:46:58;;;;;;;1.73;1.30;;;9.20;99.90;;;;;;5057748;28;20667;-59
2024/03/18 03:49:25;;;;;;;2.30;1.30;;;9.20;99.90;;;;;;5057269;28;20228;-59
2024/03/18 03:51:51;;;;;;;3.05;1.35;;;9.10;99.90;;;;;;5072107;28;20174;-60
2024/03/18 03:54:17;;;;;;;4.10;1.23;;;9.10;99.90;;;;;;5077039;28;20201;-59
2024/03/18 03:56:42;;;;;;;1.13;0.90;;;9.10;99.90;;;;;;5076888;28;20223;-59
2024/03/18 03:59:08;;;;;;;0.90;0.90;;;9.10;99.90;;;;;;5076914;28;20451;-59
2024/03/18 04:01:34;;;;;;;4.17;1.00;;;9.10;99.90;;;;;;5076983;28;20177;-59
2024/03/18 04:03:59;;;;;;;4.30;1.70;;;9.10;99.90;;;;;;5076928;28;20173;-59
2024/03/18 04:06:25;;;;;;;0.70;0.70;;;9.10;99.90;;;;;;5076982;28;20677;-59
2024/03/18 04:08:50;;;;;;;1.30;1.13;;;9.10;99.90;;;;;;5077142;28;20188;-59
2024/03/18 04:11:17;;;;;;;2.00;1.30;;;9.10;99.90;;;;;;5077019;28;20536;-59
2024/03/18 04:13:43;;;;;;;3.33;1.73;;;9.10;99.90;;;;;;5076387;28;20177;-60
2024/03/18 04:16:09;;;;;;;5.73;1.57;;;9.10;99.90;;;;;;5077323;28;20716;-59
2024/03/18 04:18:35;;;;;;;1.58;0.90;;;9.00;99.90;;;;;;5076888;28;20477;-59
2024/03/18 04:21:04;;;;;;;3.93;1.13;;;9.10;99.90;;;;;;5077224;28;20528;-60
2024/03/18 04:23:32;;;;;;;0.65;0.65;;;9.10;99.90;;;;;;5076726;28;20520;-59
2024/03/18 04:26:05;;;;;;;4.03;1.10;;;9.00;99.90;;;;;;5076349;28;20194;-59
2024/03/18 04:28:34;;;;;;;1.05;1.05;;;9.10;99.90;;;;;;5076396;28;20260;-59
2024/03/18 04:31:05;;;;;;;8.23;1.25;;;9.10;99.90;;;;;;5076251;28;20177;-59
2024/03/18 04:33:32;;;;;;;3.85;1.15;;;9.20;99.90;;;;;;5076463;28;20185;-59
2024/03/18 04:35:58;;;;;;;1.27;1.17;;;9.30;99.90;;;;;;5076662;28;20209;-59
2024/03/18 04:38:23;;;;;;;5.37;1.63;;;9.30;99.90;;;;;;5076296;28;20185;-60
2024/03/18 04:40:49;;;;;;;1.53;1.43;;;9.20;99.90;;;;;;5076350;28;20203;-59
2024/03/18 04:43:15;;;;;;;1.70;1.47;;;9.20;99.90;;;;;;5076598;28;20177;-59
2024/03/18 04:45:41;;;;;;;1.50;0.97;;;9.20;99.90;;;;;;5076342;28;20200;-60
2024/03/18 04:48:10;;;;;;;1.17;1.10;;;9.20;99.90;;;;;;5069434;28;20186;-59
2024/03/18 04:50:36;;;;;;;1.73;1.00;;;9.30;99.90;;;;;;5063222;28;20486;-59
2024/03/18 04:53:01;;;;;;;2.00;1.07;;;9.30;99.90;;;;;;5076118;28;20651;-59
2024/03/18 04:55:27;;;;;;;1.10;1.00;;;9.40;99.90;;;;;;5075831;28;20251;-59
2024/03/18 04:57:56;;;;;;;3.23;2.60;;;9.40;99.90;;;;;;5072718;28;20249;-60
2024/03/18 05:00:24;;;;;;;4.75;1.50;;;9.40;99.90;;;;;;5076039;28;20205;-59
2024/03/18 05:02:51;;;;;;;2.67;1.65;;;9.30;99.90;;;;;;5076062;28;20570;-59
2024/03/18 05:05:17;;;;;;;3.97;2.10;;;9.30;99.90;;;;;;5076121;28;20197;-59
2024/03/18 05:07:43;;;;;;;2.30;2.10;;;9.20;99.90;;;;;;5075609;28;20197;-59
2024/03/18 05:10:10;;;;;;;1.88;1.48;;;9.20;99.90;;;;;;5075755;28;20170;-60
2024/03/18 05:12:37;;;;;;;2.38;1.40;;;9.30;99.90;;;;;;5075757;28;20186;-59
2024/03/18 05:15:03;;;;;;;1.20;1.10;;;9.30;99.90;;;;;;5076263;28;20311;-59
2024/03/18 05:17:29;;;;;;;2.65;2.15;;;9.30;99.90;;;;;;5076273;28;20596;-59
2024/03/18 05:19:57;;;;;;;3.27;2.27;;;9.30;99.90;;;;;;5075527;28;20217;-59
2024/03/18 05:22:24;;;;;;;10.52;2.40;;;9.20;99.90;;;;;;5075655;28;20180;-59
2024/03/18 05:24:49;;;;;;;3.90;2.60;;;9.10;99.90;;;;;;5075018;28;20231;-59
2024/03/18 05:27:17;;;;;;;3.87;2.27;;;9.00;99.90;;;;;;5075379;28;20185;-59
2024/03/18 05:29:43;;;;;;;6.63;2.38;;;9.20;99.90;;;;;;5074906;28;20247;-59
2024/03/18 05:32:13;;;;;;;6.00;2.72;;;9.30;99.90;;;;;;5075493;28;20212;-59
2024/03/18 05:34:40;;;;;;;2.67;2.47;;;9.30;99.90;;;;;;5075009;28;20217;-60
2024/03/18 05:37:06;;;;;;;6.15;2.55;;;9.30;99.90;;;;;;5075371;28;20193;-59
2024/03/18 05:39:33;;;;;;;5.00;2.80;;;9.20;99.90;;;;;;5074568;28;20216;-59
2024/03/18 05:41:59;;;;;;;4.68;2.92;;;9.20;99.90;;;;;;5075268;28;20209;-59
2024/03/18 05:44:25;;;;;;;2.60;2.40;;;9.20;99.90;;;;;;5074971;28;20579;-59
2024/03/18 05:46:51;;;;;;;2.17;1.87;;;9.30;99.90;;;;;;5075305;28;20678;-60
2024/03/18 05:49:17;;;;;;;5.10;1.92;;;9.40;99.90;;;;;;5056924;28;20190;-59
2024/03/18 05:51:44;;;;;;;6.30;5.20;;;9.40;99.90;;;;;;5055335;28;20182;-60
2024/03/18 05:54:10;;;;;;;3.85;2.65;;;9.50;99.90;;;;;;5054298;28;20276;-59
2024/03/18 05:56:36;;;;;;;2.53;1.90;;;9.50;99.90;;;;;;5063292;28;20262;-59
2024/03/18 05:59:02;;;;;;;2.45;1.80;;;9.50;99.90;;;;;;5054342;28;20205;-58
2024/03/18 06:01:29;;;;;;;2.03;1.33;;;9.50;99.90;;;;;;5055219;28;20569;-59
2024/03/18 06:03:54;;;;;;;1.80;1.00;;;9.70;99.90;;;;;;5054759;28;20651;-59
2024/03/18 06:06:20;;;;;;;2.37;2.17;;;9.50;99.90;;;;;;5054667;28;20227;-60
2024/03/18 06:08:46;;;;;;;3.77;1.70;;;9.50;99.90;;;;;;5054578;28;20170;-59
2024/03/18 06:11:11;;;;;;;4.40;2.37;;;9.50;99.90;;;;;;5054785;28;20182;-59
2024/03/18 06:13:37;;;;;;;3.83;2.87;;;9.60;99.90;;;;;;5054371;28;20208;-59
2024/03/18 06:16:03;;;;;;;5.83;3.00;;;9.50;99.90;;;;;;5054500;28;20193;-59
2024/03/18 06:18:32;;;;;;;3.40;2.15;;;9.50;99.90;;;;;;5053786;28;20823;-60
2024/03/18 06:21:00;;;;;;;5.03;3.17;;;9.50;99.90;;;;;;5054889;28;20178;-59
2024/03/18 06:23:26;;;;;;;3.75;2.40;;;9.60;99.90;;;;;;5054616;28;20178;-59
2024/03/18 06:25:58;;;;;;;4.73;2.83;;;9.70;99.90;;;;;;5054482;28;20219;-59
2024/03/18 06:28:30;;;;;;;2.50;1.73;;;9.60;99.90;;;;;;5054268;28;20412;-59
2024/03/18 06:30:57;;;;;;;2.07;1.87;;;9.50;99.90;;;;;;5054479;28;20178;-59
2024/03/18 06:33:24;;;;;;;3.03;2.00;;;9.50;99.90;;;;;;5054344;28;20764;-59
2024/03/18 06:35:53;;;;;;;1.65;1.55;;;9.60;99.90;;;;;;5054336;28;20518;-60
2024/03/18 06:38:23;;;;;;;1.80;1.70;;;9.70;99.90;;;;;;5053662;28;20185;-59
2024/03/18 06:40:49;;;;;;;1.50;1.40;;;9.70;99.90;;;;;;5054904;28;20184;-60
2024/03/18 06:43:18;;;;;;;1.67;1.58;;;9.70;99.90;;;;;;5054976;28;20185;-59
2024/03/18 06:45:44;;;;;;;2.42;2.25;;;9.80;99.90;;;;;;5054920;28;20246;-59
2024/03/18 06:48:10;;;;;;;2.60;1.92;;;9.80;99.90;;;;;;5054946;28;20170;-59
2024/03/18 06:50:37;;;;;;;2.50;1.93;;;9.90;99.90;;;;;;5054499;28;20197;-59
2024/03/18 06:53:04;;;;;;;1.85;1.70;;;9.90;99.90;;;;;;5054825;28;20809;-59
2024/03/18 06:55:30;;;;;;;3.38;2.00;;;9.80;99.90;;;;;;5047389;28;20213;-59
2024/03/18 06:57:59;;;;;;;2.57;2.27;;;9.80;99.90;;;;;;5054512;28;20268;-59
2024/03/18 07:00:25;;;;;;;2.63;2.40;;;9.70;99.90;;;;;;5054009;28;20448;-59
2024/03/18 07:02:51;;;;;;;2.03;1.40;;;9.60;99.90;;;;;;5053874;28;20806;-59
2024/03/18 07:05:17;;;;;;;3.55;2.00;;;9.60;99.90;;;;;;5054747;28;20206;-60
2024/03/18 07:07:45;;;;;;;2.30;1.47;;;9.70;99.90;;;;;;5054468;28;20257;-60
2024/03/18 07:10:11;;;;;;;2.50;1.70;;;9.90;99.90;;;;;;5053891;28;20408;-59
2024/03/18 07:12:41;;;;;;;2.67;1.80;;;10.00;99.90;;;;;;5054499;28;20208;-59
2024/03/18 07:15:11;;;;;;;3.25;1.60;;;10.00;99.90;;;;;;5054003;28;20877;-59
2024/03/18 07:17:40;;;;;;;3.00;2.80;;;10.00;99.90;;;;;;5054334;28;20182;-59
2024/03/18 07:20:07;;;;;;;2.05;1.40;;;10.00;99.90;;;;;;5053477;28;20479;-59
2024/03/18 07:22:34;;;;;;;4.65;2.60;;;9.90;99.90;;;;;;5053986;28;20182;-59
2024/03/18 07:24:59;;;;;;;1.93;1.83;;;9.90;99.90;;;;;;5053888;28;20668;-59
2024/03/18 07:27:26;;;;;;;2.67;1.87;;;10.00;99.90;;;;;;5053428;28;20408;-60
2024/03/18 07:30:00;;;;;;;2.10;1.80;;;10.10;99.90;;;;;;5053521;28;20447;-60
2024/03/18 07:32:26;;;;;;;1.98;1.45;;;10.10;99.90;;;;;;5053671;28;20401;-60
2024/03/18 07:34:52;;;;;;;1.83;1.30;;;10.20;99.90;;;;;;5053001;28;20220;-59
2024/03/18 07:37:21;;;;;;;4.40;1.80;;;10.20;99.90;;;;;;5053969;28;20177;-59
2024/03/18 07:39:47;;;;;;;4.67;2.20;;;10.20;99.90;;;;;;5053626;28;20445;-59
2024/03/18 07:42:13;;;;;;;6.00;1.73;;;10.30;99.90;;;;;;5054408;28;20444;-59
2024/03/18 07:44:39;;;;;;;2.17;1.60;;;10.30;99.90;;;;;;5053889;28;20432;-59
2024/03/18 07:47:05;;;;;;;2.80;1.70;;;10.40;99.90;;;;;;5054646;28;20405;-60
2024/03/18 07:49:30;;;;;;;2.43;2.27;;;10.50;99.90;;;;;;5056268;28;20407;-59
2024/03/18 07:51:56;;;;;;;3.73;2.57;;;10.50;99.90;;;;;;5057567;28;20181;-59
2024/03/18 07:54:22;;;;;;;2.80;2.47;;;10.50;99.90;;;;;;5057148;28;20197;-59
2024/03/18 07:56:48;;;;;;;2.67;2.47;;;10.50;99.90;;;;;;5056793;28;20417;-64
2024/03/18 07:59:13;;;;;;;2.80;2.47;;;10.40;99.90;;;;;;5056223;28;20204;-60
2024/03/18 08:01:39;;;;;;;2.50;2.23;;;10.50;99.90;;;;;;5056033;28;20173;-59
2024/03/18 08:04:04;;;;;;;2.10;1.70;;;10.50;99.90;;;;;;5055470;28;20288;-59
2024/03/18 08:06:30;;;;;;;2.90;1.90;;;10.50;99.90;;;;;;5055409;28;20167;-59
2024/03/18 08:08:56;;;;;;;1.73;1.37;;;10.60;99.90;;;;;;5055066;28;20182;-60
2024/03/18 08:11:21;;;;;;;1.97;1.87;;;10.80;99.90;;;;;;5057019;28;20178;-62
2024/03/18 08:13:47;;;;;;;2.03;1.93;;;10.70;99.90;;;;;;5057605;28;20185;-62
2024/03/18 08:16:13;;;;;;;2.50;1.70;;;10.60;99.90;;;;;;5057156;28;20178;-61
2024/03/18 08:18:38;;;;;;;1.67;1.10;;;10.70;99.90;;;;;;5072248;28;20177;-62
2024/03/18 08:21:04;;;;;;;1.77;1.40;;;10.70;99.90;;;;;;5062656;28;20172;-61
2024/03/18 08:23:30;;;;;;;1.70;1.60;;;10.70;99.90;;;;;;5067978;28;20177;-61
2024/03/18 08:25:56;;;;;;;3.17;2.50;;;10.70;99.90;;;;;;5076305;28;20288;-62
2024/03/18 08:28:22;;;;;;;2.00;1.90;;;10.70;99.90;;;;;;5075565;28;20400;-62
2024/03/18 08:30:47;;;;;;;3.60;1.87;;;10.80;99.90;;;;;;5069896;28;20174;-62
2024/03/18 08:33:13;;;;;;;1.80;1.70;;;10.80;99.90;;;;;;5065887;28;20520;-61
2024/03/18 08:35:38;;;;;;;8.13;2.00;;;10.80;99.90;;;;;;5074349;28;20287;-62
2024/03/18 08:38:05;;;;;;;1.57;1.47;;;10.80;99.90;;;;;;5074503;28;20174;-62
2024/03/18 08:40:33;;;;;;;1.60;1.40;;;10.80;99.90;;;;;;5075254;28;20280;-61
2024/03/18 08:42:59;;;;;;;1.93;1.17;;;10.80;99.90;;;;;;5067288;28;20808;-61
2024/03/18 08:45:24;;;;;;;3.50;1.60;;;10.90;99.90;;;;;;5055462;28;20439;-61
2024/03/18 08:47:50;;;;;;;2.37;1.63;;;10.90;99.90;;;;;;5065599;28;20173;-61
2024/03/18 08:50:16;;;;;;;4.00;1.50;;;11.00;99.90;;;;;;5073684;28;20572;-60
2024/03/18 08:52:41;;;;;;;3.87;2.23;;;11.00;99.90;;;;;;5074136;28;20178;-61
2024/03/18 08:55:08;;;;;;;1.17;1.10;;;11.00;99.90;;;;;;5073969;28;20280;-62
2024/03/18 08:57:33;;;;;;;2.30;1.90;;;11.10;99.90;;;;;;5075407;28;20180;-62
2024/03/18 08:59:59;;;;;;;1.17;0.90;;;11.10;99.90;;;;;;5068575;28;20974;-65
2024/03/18 09:02:25;;;;;;;1.03;1.03;;;11.10;99.90;;;;;;5063599;28;20679;-62
2024/03/18 09:04:51;;;;;;;1.10;1.00;;;11.20;99.90;;;;;;5068452;28;20507;-62
2024/03/18 09:07:16;;;;;;;1.47;1.37;;;11.30;99.90;;;;;;5076718;28;20181;-62
2024/03/18 09:09:42;;;;;;;0.87;0.87;;;11.30;99.90;;;;;;5076783;28;20169;-62
2024/03/18 09:12:08;;;;;;;0.80;0.63;;;11.40;99.90;;;;;;5065167;28;20675;-61
2024/03/18 09:14:34;;;;;;;0.40;0.40;;;11.40;99.90;;;;;;5074492;28;20667;-61
2024/03/18 09:17:03;;;;;;;0.50;0.50;;;11.40;99.90;;;;;;5076888;28;20180;-62
2024/03/18 09:19:29;;;;;;;0.80;0.50;;;11.40;99.90;;;;;;5068833;28;20480;-62
2024/03/18 09:21:55;;;;;;;0.50;0.40;;;11.50;99.90;;;;;;5066056;28;20413;-62
2024/03/18 09:24:20;;;;;;;0.50;0.50;;;11.40;99.90;;;;;;5065860;28;20527;-62
2024/03/18 09:26:49;;;;;;;0.40;0.40;;;11.30;99.90;;;;;;5066453;28;20407;-62
2024/03/18 09:29:15;;;;;;;0.53;0.53;;;11.20;99.90;;;;;;5071700;28;20187;-62
2024/03/18 09:31:43;;;;;;;0.83;0.40;;;11.20;99.90;;;;;;5077672;28;20491;-61
2024/03/18 09:34:09;;;;;;;0.40;0.40;;;11.10;99.90;;;;;;5067452;28;20248;-61
2024/03/18 09:36:35;;;;;;;0.40;0.30;;;11.00;99.90;;;;;;5074624;28;20495;-62
2024/03/18 09:39:01;;;;;;;0.40;0.40;;;10.90;99.90;;;;;;5076654;28;20490;-61
2024/03/18 09:41:27;;;;;;;2.20;0.50;;;10.90;99.90;;;;;;5076323;28;20170;-61
2024/03/18 09:43:53;;;;;;;0.68;0.68;;;11.00;99.90;;;;;;5076735;28;20173;-62
2024/03/18 09:46:19;;;;;;;0.60;0.50;;;10.90;99.90;;;;;;5075234;28;20544;-61
2024/03/18 09:48:45;;;;;;;1.40;0.47;;;11.00;99.90;;;;;;5074664;28;20197;-61
2024/03/18 09:51:17;;;;;;;0.30;0.30;;;11.10;99.90;;;;;;5074266;28;20404;-62
2024/03/18 09:53:46;;;;;;;0.57;0.43;;;11.20;99.90;;;;;;5073110;28;20411;-61
2024/03/18 09:56:15;;;;;;;0.40;0.40;;;11.20;99.90;;;;;;5074642;28;20503;-63
2024/03/18 09:58:44;;;;;;;0.40;0.40;;;11.30;99.90;;;;;;5075028;28;20400;-63
2024/03/18 10:01:12;;;;;;;0.70;0.40;;;11.30;99.90;;;;;;5074750;28;20408;-62
2024/03/18 10:03:44;;;;;;;0.93;0.40;;;11.30;99.90;;;;;;5075221;28;20446;-61
2024/03/18 10:06:12;;;;;;;1.63;0.50;;;11.40;99.90;;;;;;5075370;28;20506;-61
2024/03/18 10:08:39;;;;;;;0.40;0.40;;;11.40;99.90;;;;;;5075131;28;20408;-61
2024/03/18 10:11:07;;;;;;;2.00;0.50;;;11.50;99.90;;;;;;5074650;28;20948;-62
2024/03/18 10:13:32;;;;;;;0.40;0.40;;;11.40;99.90;;;;;;5075228;28;20420;-62
2024/03/18 10:15:59;;;;;;;0.30;0.30;;;11.30;99.90;;;;;;5074444;28;20431;-62
2024/03/18 10:18:28;;;;;;;0.50;0.50;;;11.20;99.90;;;;;;5074651;28;20164;-62
2024/03/18 10:20:54;;;;;;;0.40;0.40;;;11.30;99.90;;;;;;5074944;28;20909;-61
2024/03/18 10:23:20;;;;;;;0.40;0.40;;;11.40;99.90;;;;;;5074644;28;20407;-62
2024/03/18 10:25:46;;;;;;;1.60;0.67;;;11.50;99.90;;;;;;5069378;28;20976;-62
2024/03/18 10:28:13;;;;;;;0.80;0.40;;;11.60;99.90;;;;;;5066921;28;20434;-61
2024/03/18 10:30:39;;;;;;;0.50;0.40;;;11.70;99.90;;;;;;5074640;28;20177;-62
2024/03/18 10:33:07;;;;;;;0.60;0.60;;;11.70;99.90;;;;;;5074649;28;20920;-62
2024/03/18 10:35:34;;;;;;;0.50;0.50;;;11.70;99.90;;;;;;5075152;28;20964;-62
2024/03/18 10:38:07;;;;;;;22.30;12.00;;;11.70;99.90;;;;;;5074334;28;20411;-62
2024/03/18 10:40:36;;;;;;;1.70;1.27;;;11.70;99.90;;;;;;5074152;28;20450;-62
2024/03/18 10:43:14;;;;;;;1.70;0.70;;;11.70;99.90;;;;;;5074368;28;20926;-62
2024/03/18 10:45:48;;;;;;;0.40;0.40;;;11.80;99.90;;;;;;5074591;28;20426;-61
2024/03/18 10:48:17;;;;;;;0.90;0.40;;;11.80;99.90;;;;;;5074355;28;20404;-62
2024/03/18 10:50:44;;;;;;;6.93;3.80;;;11.80;99.90;;;;;;5074582;28;20408;-62
2024/03/18 10:53:19;;;;;;;0.73;0.60;;;11.90;99.90;;;;;;5074111;28;20412;-61
2024/03/18 10:55:48;;;;;;;0.50;0.50;;;12.10;99.90;;;;;;5073839;28;20442;-62
2024/03/18 10:58:17;;;;;;;1.13;0.40;;;12.20;99.90;;;;;;5074257;28;20408;-62
2024/03/18 11:00:44;;;;;;;0.70;0.70;;;12.40;99.90;;;;;;5074099;28;20525;-62
2024/03/18 11:03:14;;;;;;;1.80;0.60;;;12.50;99.90;;;;;;5074291;28;20404;-62
2024/03/18 11:05:58;;;;;;;3.17;2.20;;;12.60;99.90;;;;;;5073985;28;20865;-62
2024/03/18 11:08:25;;;;;;;2.07;0.80;;;12.70;99.90;;;;;;5073412;28;20945;-62
2024/03/18 11:10:55;;;;;;;0.83;0.80;;;12.90;99.90;;;;;;5074028;28;20435;-62
2024/03/18 11:13:36;;;;;;;0.40;0.40;;;13.10;99.90;;;;;;5073809;28;20453;-62
2024/03/18 11:16:08;;;;;;;0.40;0.40;;;13.20;99.90;;;;;;5074091;28;20485;-62
2024/03/18 11:18:38;;;;;;;0.63;0.60;;;13.10;99.90;;;;;;5073570;28;20785;-62
2024/03/18 11:21:04;;;;;;;3.93;1.10;;;12.90;99.80;;;;;;5066638;28;20445;-62
2024/03/18 11:23:31;;;;;;;11.00;8.53;;;12.90;99.90;;;;;;5050330;28;20413;-62
2024/03/18 11:26:05;;;;;;;3.50;3.20;;;12.90;99.90;;;;;;5055633;28;20209;-62
2024/03/18 11:28:45;;;;;;;0.70;0.70;;;12.80;99.90;;;;;;5063459;28;20464;-62
2024/03/18 11:31:21;;;;;;;1.00;0.50;;;12.80;99.90;;;;;;5055483;28;20439;-62
2024/03/18 11:33:47;;;;;;;0.50;0.50;;;12.90;99.90;;;;;;5055618;28;20406;-62
2024/03/18 11:36:17;;;;;;;2.40;2.20;;;13.20;99.90;;;;;;5079309;22;20791;-58
2024/03/18 11:38:42;;;;;;;32.37;18.03;;;13.40;99.90;;;;;;5055087;28;20837;-57
2024/03/18 11:41:08;;;;;;;6.30;4.07;;;13.60;99.80;;;;;;5054819;28;20412;-55
2024/03/18 11:43:36;;;;;;;0.70;0.70;;;13.90;99.90;;;;;;5054482;28;20174;-54
2024/03/18 11:46:05;;;;;;;0.60;0.57;;;14.10;99.40;;;;;;5054510;28;20224;-57
2024/03/18 11:48:31;;;;;;;3.90;3.50;;;14.20;99.10;;;;;;5054144;28;20413;-55
2024/03/18 11:50:57;;;;;;;0.53;0.53;;;14.30;98.50;;;;;;5054579;28;20431;-55
2024/03/18 11:53:23;;;;;;;3.33;3.03;;;14.40;98.20;;;;;;5054921;28;20417;-58
2024/03/18 11:55:52;;;;;;;0.80;0.80;;;14.40;98.30;;;;;;5054384;28;20652;-58
2024/03/18 11:58:18;;;;;;;0.90;0.90;;;14.40;98.10;;;;;;5054121;28;20619;-58
2024/03/18 12:00:47;;;;;;;0.50;0.50;;;14.30;98.50;;;;;;5054345;28;20824;-57
2024/03/18 12:03:14;;;;;;;0.70;0.70;;;14.30;98.60;;;;;;5054599;28;20416;-58
2024/03/18 12:05:42;;;;;;;0.40;0.40;;;14.50;99.90;;;;;;5054218;28;20411;-57
2024/03/18 12:08:17;;;;;;;0.90;0.90;;;14.60;98.60;;;;;;5054426;28;20419;-58
2024/03/18 12:10:44;;;;;;;2.63;0.50;;;14.70;98.30;;;;;;5054345;28;20403;-58
2024/03/18 12:13:12;;;;;;;0.50;0.50;;;14.90;97.60;;;;;;5054232;28;20411;-57
2024/03/18 12:15:39;;;;;;;0.40;0.40;;;15.00;99.90;;;;;;5053933;28;20765;-56
2024/03/18 12:18:06;;;;;;;0.50;0.50;;;15.10;97.20;;;;;;5054021;28;20419;-58
2024/03/18 12:20:32;;;;;;;0.90;0.90;;;15.00;97.40;;;;;;5054038;28;20448;-58
2024/03/18 12:23:05;;;;;;;0.77;0.60;;;14.70;97.60;;;;;;5054002;28;20888;-58
2024/03/18 12:31:23;;;;;;;1.37;1.27;;;14.00;98.00;;;;;;5011227;28;20825;-56
2024/03/18 12:33:49;;;;;;;0.70;0.57;;;13.80;97.90;;;;;;5044502;28;20419;-57
2024/03/18 12:36:16;;;;;;;1.57;1.03;;;13.60;98.60;;;;;;5053225;28;20440;-57
2024/03/18 12:38:50;;;;;;;1.23;0.77;;;13.40;99.10;;;;;;5053148;28;20495;-58
2024/03/18 12:41:18;;;;;;;1.80;0.60;;;13.30;99.60;;;;;;5052103;28;20428;-58
2024/03/18 12:43:44;;;;;;;0.40;0.40;;;13.20;99.90;;;;;;5053521;28;20466;-58
2024/03/18 12:46:16;;;;;;;0.40;0.40;;;12.90;99.90;;;;;;5053431;28;20441;-58
2024/03/18 12:48:45;;;;;;;1.30;0.57;;;12.70;99.90;;;;;;5051204;28;20432;-58
2024/03/18 12:51:16;;;;;;;0.60;0.60;;;12.60;99.90;;;;;;5053740;28;20491;-58
2024/03/18 12:53:44;;;;;;;4.80;3.70;;;12.40;99.90;;;;;;5053617;28;20408;-58
2024/03/18 12:56:10;;;;;;;0.90;0.90;;;12.30;99.90;;;;;;5053370;28;20508;-58
2024/03/18 12:58:35;;;;;;;0.70;0.70;;;12.30;99.90;;;;;;5053154;28;21003;-58
2024/03/18 13:01:06;;;;;;;9.67;6.80;;;12.30;99.90;;;;;;5053486;28;20417;-58